Time;durP1;ratioP1;P1;durP2;ratioP2;P2;SDS_P1;SDS_P2;PMS_P1;PMS_P2;Temp;Humidity;BMP_temperature;BMP_pressure;BME280_temperature;BME280_humidity;BME280_pressure;Samples;Min_cycle;Max_cycle;Signal;HPM_P1;HPM_P2
2022/12/11 00:02:26;;;;;;;25.80;11.03;;;;;1.00;95352.00;;;;8401971;28;20226;-71
2022/12/11 00:06:29;;;;;;;30.20;13.27;;;;;0.90;95357.00;;;;8404123;28;20207;-71
2022/12/11 00:10:34;;;;;;;28.10;11.93;;;;;0.80;95352.00;;;;8401970;28;20538;-71
2022/12/11 00:14:40;;;;;;;28.50;11.37;;;;;0.80;95345.00;;;;8402980;28;20193;-71
2022/12/11 00:18:43;;;;;;;30.50;12.70;;;;;0.80;95351.00;;;;8401942;28;20192;-71
2022/12/11 00:22:46;;;;;;;26.70;11.23;;;;;0.70;95350.00;;;;8402260;28;20687;-71
2022/12/11 00:26:50;;;;;;;29.80;12.43;;;;;0.70;95351.00;;;;8401761;28;20189;-71
2022/12/11 00:30:54;;;;;;;28.00;12.40;;;;;0.60;95349.00;;;;8401487;28;20197;-71
2022/12/11 00:34:57;;;;;;;29.30;11.70;;;;;0.50;95360.00;;;;8401094;28;20202;-71
2022/12/11 00:39:01;;;;;;;27.50;11.53;;;;;0.50;95360.00;;;;8401111;28;20198;-71
2022/12/11 00:43:36;;;;;;;30.43;12.17;;;;;0.30;95364.00;;;;8400612;28;20201;-71
2022/12/11 00:47:40;;;;;;;26.70;12.07;;;;;0.30;95369.00;;;;8401431;28;20210;-71
2022/12/11 00:51:43;;;;;;;34.47;12.53;;;;;0.30;95372.00;;;;8400728;28;20684;-71
2022/12/11 00:55:46;;;;;;;32.50;12.67;;;;;0.30;95379.00;;;;8401540;28;20220;-71
2022/12/11 00:59:50;;;;;;;34.10;12.67;;;;;0.40;95374.00;;;;8401044;28;20205;-71
2022/12/11 01:03:54;;;;;;;32.93;13.50;;;;;0.40;95384.00;;;;8400612;28;20223;-71
2022/12/11 01:07:57;;;;;;;33.27;13.37;;;;;0.40;95393.00;;;;8400725;28;20384;-71
2022/12/11 01:12:00;;;;;;;30.20;12.93;;;;;0.40;95401.00;;;;8400112;28;20222;-71
2022/12/11 01:16:09;;;;;;;31.50;13.17;;;;;0.40;95405.00;;;;8399964;28;20198;-71
2022/12/11 01:20:12;;;;;;;34.67;13.70;;;;;0.50;95405.00;;;;8399626;28;20555;-71
2022/12/11 01:24:16;;;;;;;32.60;13.87;;;;;0.50;95405.00;;;;8399869;28;20202;-71
2022/12/11 01:28:50;;;;;;;33.83;14.20;;;;;0.40;95410.00;;;;8400142;28;20267;-72
2022/12/11 01:32:54;;;;;;;29.60;13.57;;;;;0.40;95400.00;;;;8399332;28;20276;-72
2022/12/11 01:36:58;;;;;;;34.57;14.43;;;;;0.20;95395.00;;;;8399427;28;20251;-72
2022/12/11 01:41:01;;;;;;;36.43;15.90;;;;;0.10;95405.00;;;;8398822;28;20201;-72
2022/12/11 01:45:27;;;;;;;34.73;15.63;;;;;-0.10;95409.00;;;;8399646;28;20202;-71
2022/12/11 01:49:31;;;;;;;40.57;14.77;;;;;-0.20;95403.00;;;;8398482;28;20193;-71
2022/12/11 01:53:37;;;;;;;34.60;14.13;;;;;-0.30;95399.00;;;;8398698;28;20275;-71
2022/12/11 01:57:43;;;;;;;37.40;13.93;;;;;-0.30;95395.00;;;;8398755;28;20625;-71
2022/12/11 02:01:50;;;;;;;29.87;12.97;;;;;-0.40;95405.00;;;;8398630;28;20289;-71
2022/12/11 02:05:54;;;;;;;34.67;13.70;;;;;-0.40;95404.00;;;;8398975;28;20553;-71
2022/12/11 02:09:57;;;;;;;36.10;14.17;;;;;-0.40;95397.00;;;;8399026;28;20202;-71
2022/12/11 02:14:08;;;;;;;32.80;13.10;;;;;-0.40;95395.00;;;;8397745;28;20275;-71
2022/12/11 02:18:17;;;;;;;30.87;13.47;;;;;-0.50;95403.00;;;;8398354;28;20249;-70
2022/12/11 02:22:37;;;;;;;36.27;13.70;;;;;-0.60;95402.00;;;;8398253;28;20238;-70
2022/12/11 02:27:00;;;;;;;29.80;12.90;;;;;-0.60;95398.00;;;;8399589;28;20199;-71
2022/12/11 02:31:18;;;;;;;34.77;15.27;;;;;-0.70;95392.00;;;;8432249;28;20632;-70
2022/12/11 02:35:25;;;;;;;34.53;13.07;;;;;-0.80;95382.00;;;;8430789;28;20580;-70
2022/12/11 02:39:31;;;;;;;30.60;12.47;;;;;-0.80;95387.00;;;;8432377;28;20199;-70
2022/12/11 02:43:36;;;;;;;29.43;12.17;;;;;-0.90;95380.00;;;;8431960;28;20176;-70
2022/12/11 02:47:42;;;;;;;32.90;12.07;;;;;-1.00;95380.00;;;;8432230;28;20206;-70
2022/12/11 02:51:46;;;;;;;35.40;13.83;;;;;-1.10;95369.00;;;;8430759;28;20257;-70
2022/12/11 02:55:53;;;;;;;34.50;13.97;;;;;-1.10;95383.00;;;;8432258;28;20200;-70
2022/12/11 02:59:56;;;;;;;36.17;14.60;;;;;-1.10;95379.00;;;;8432997;28;20187;-70
2022/12/11 03:04:00;;;;;;;33.17;13.67;;;;;-1.20;95378.00;;;;8419867;22;20263;-69
2022/12/11 03:08:04;;;;;;;33.67;14.07;;;;;-1.30;95378.00;;;;8393075;28;20204;-70
2022/12/11 03:12:09;;;;;;;32.80;13.50;;;;;-1.40;95377.00;;;;8379014;28;20590;-70
2022/12/11 03:16:23;;;;;;;33.17;13.33;;;;;-1.40;95380.00;;;;8351941;28;20264;-70
2022/12/11 03:20:35;;;;;;;35.70;14.77;;;;;-1.60;95383.00;;;;8351241;28;20197;-71
2022/12/11 03:24:43;;;;;;;32.03;14.20;;;;;-1.60;95374.00;;;;8365472;28;20248;-69
2022/12/11 03:28:48;;;;;;;36.20;14.10;;;;;-1.70;95381.00;;;;8384668;28;20199;-70
2022/12/11 03:32:56;;;;;;;40.43;15.70;;;;;-1.70;95384.00;;;;8381619;28;20236;-69
2022/12/11 03:37:05;;;;;;;32.53;14.10;;;;;-1.60;95380.00;;;;8368310;28;20811;-70
2022/12/11 03:41:11;;;;;;;42.03;15.60;;;;;-1.60;95389.00;;;;8383203;28;20200;-69
2022/12/11 03:45:16;;;;;;;36.93;13.90;;;;;-1.60;95381.00;;;;8373089;28;20552;-69
2022/12/11 03:49:22;;;;;;;37.20;14.90;;;;;-1.60;95389.00;;;;8379853;28;20185;-69
2022/12/11 03:53:28;;;;;;;32.23;13.17;;;;;-1.70;95395.00;;;;8374541;28;20284;-69
2022/12/11 03:57:34;;;;;;;30.33;13.57;;;;;-1.90;95394.00;;;;8374498;28;20205;-69
2022/12/11 04:01:37;;;;;;;32.57;13.50;;;;;-2.00;95393.00;;;;8380593;28;20216;-69
2022/12/11 04:05:41;;;;;;;32.07;12.93;;;;;-2.10;95393.00;;;;8353667;28;20196;-69
2022/12/11 04:09:45;;;;;;;34.53;14.67;;;;;-2.30;95394.00;;;;8365102;28;20239;-69
2022/12/11 04:15:00;;;;;;;32.60;13.67;;;;;-2.40;95402.00;;;;8372331;28;20240;-69
2022/12/11 04:26:54;;;;;;;43.40;15.27;;;;;-2.10;95400.00;;;;8354756;28;20201;-70
2022/12/11 04:30:57;;;;;;;38.03;15.33;;;;;-1.90;95407.00;;;;8373006;28;20200;-70
2022/12/11 04:35:00;;;;;;;45.87;16.90;;;;;-1.70;95402.00;;;;8373009;28;20587;-71
2022/12/11 04:39:04;;;;;;;28.53;11.97;;;;;-1.60;95403.00;;;;8357461;28;20200;-70
2022/12/11 04:43:08;;;;;;;42.20;16.43;;;;;-1.60;95401.00;;;;8363076;28;20212;-70
2022/12/11 04:47:11;;;;;;;46.83;15.97;;;;;-1.60;95401.00;;;;8372878;28;20223;-71
2022/12/11 04:51:15;;;;;;;39.93;14.53;;;;;-1.60;95395.00;;;;8380456;28;20200;-70
2022/12/11 04:55:19;;;;;;;41.37;15.60;;;;;-1.70;95399.00;;;;8363341;28;20605;-70
2022/12/11 04:59:23;;;;;;;31.60;13.50;;;;;-1.70;95401.00;;;;8374758;28;20204;-70
2022/12/11 05:03:27;;;;;;;31.50;12.47;;;;;-1.80;95396.00;;;;8350588;28;20231;-70
2022/12/11 05:07:30;;;;;;;32.93;14.20;;;;;-1.80;95385.00;;;;8371221;28;20200;-71
2022/12/11 05:11:33;;;;;;;37.80;13.77;;;;;-1.80;95380.00;;;;8375919;28;20561;-70
2022/12/11 05:15:40;;;;;;;30.30;12.60;;;;;-1.70;95387.00;;;;8369116;28;20398;-71
2022/12/11 05:19:43;;;;;;;30.17;12.73;;;;;-1.60;95384.00;;;;8370265;28;20192;-71
2022/12/11 05:23:47;;;;;;;29.13;11.97;;;;;-1.50;95380.00;;;;8370641;28;20204;-71
2022/12/11 05:27:50;;;;;;;30.80;12.43;;;;;-1.50;95375.00;;;;8365976;28;20582;-71
2022/12/11 05:31:54;;;;;;;29.53;11.97;;;;;-1.50;95376.00;;;;8381938;28;20792;-71
2022/12/11 05:35:57;;;;;;;28.80;12.20;;;;;-1.60;95363.00;;;;8365345;28;20228;-71
2022/12/11 05:40:01;;;;;;;28.47;12.43;;;;;-1.60;95384.00;;;;8346283;28;20206;-71
2022/12/11 05:44:04;;;;;;;31.27;12.70;;;;;-1.70;95389.00;;;;8382744;28;20203;-71
2022/12/11 05:48:09;;;;;;;28.43;11.93;;;;;-1.80;95380.00;;;;8369101;28;20653;-71
2022/12/11 05:52:12;;;;;;;29.63;12.13;;;;;-2.00;95381.00;;;;8364815;28;20625;-71
2022/12/11 05:56:17;;;;;;;29.60;12.33;;;;;-2.20;95376.00;;;;8370103;28;20224;-71
2022/12/11 06:00:21;;;;;;;28.17;11.63;;;;;-2.40;95370.00;;;;8355664;28;20613;-72
2022/12/11 06:04:25;;;;;;;32.63;12.97;;;;;-2.50;95377.00;;;;8373179;28;20278;-71
2022/12/11 06:08:28;;;;;;;35.60;14.57;;;;;-2.50;95369.00;;;;8360883;28;20189;-71
2022/12/11 06:12:31;;;;;;;35.10;14.13;;;;;-2.50;95385.00;;;;8369797;28;20204;-71
2022/12/11 06:16:34;;;;;;;32.10;14.13;;;;;-2.50;95376.00;;;;8360186;28;20217;-72
2022/12/11 06:20:39;;;;;;;37.40;13.67;;;;;-2.50;95387.00;;;;8367305;28;20596;-72
2022/12/11 06:24:42;;;;;;;38.20;13.73;;;;;-2.40;95394.00;;;;8359079;28;20255;-71
2022/12/11 06:28:46;;;;;;;34.67;14.17;;;;;-2.30;95380.00;;;;8375558;28;20254;-72
2022/12/11 06:32:49;;;;;;;44.97;17.67;;;;;-2.20;95384.00;;;;8345951;28;20199;-72
2022/12/11 06:36:54;;;;;;;64.13;23.07;;;;;-2.00;95374.00;;;;8351883;28;20246;-72
2022/12/11 06:40:58;;;;;;;45.63;16.97;;;;;-1.80;95387.00;;;;8384376;28;20645;-72
2022/12/11 06:45:01;;;;;;;47.30;16.67;;;;;-1.70;95391.00;;;;8345726;28;20299;-72
2022/12/11 06:49:04;;;;;;;33.87;13.57;;;;;-1.70;95382.00;;;;8369388;28;20199;-72
2022/12/11 06:53:10;;;;;;;33.47;14.33;;;;;-1.70;95380.00;;;;8353263;28;20192;-72
2022/12/11 06:57:13;;;;;;;31.90;13.60;;;;;-1.70;95385.00;;;;8356450;28;20227;-72
2022/12/11 07:01:18;;;;;;;34.20;13.27;;;;;-1.70;95385.00;;;;8372470;28;20193;-73
2022/12/11 07:05:21;;;;;;;76.30;27.30;;;;;-1.70;95382.00;;;;8372973;28;20204;-72
2022/12/11 07:09:25;;;;;;;38.93;15.63;;;;;-1.60;95381.00;;;;8367653;28;20688;-73
2022/12/11 07:13:28;;;;;;;49.00;20.07;;;;;-1.50;95390.00;;;;8376556;28;20225;-73
2022/12/11 07:17:32;;;;;;;33.97;14.53;;;;;-1.50;95388.00;;;;8362773;28;20214;-73
2022/12/11 07:21:35;;;;;;;36.70;15.47;;;;;-1.50;95383.00;;;;8366985;28;20268;-73
2022/12/11 07:25:40;;;;;;;34.80;14.87;;;;;-1.50;95388.00;;;;8359520;28;20198;-73
2022/12/11 07:29:43;;;;;;;29.90;12.83;;;;;-1.50;95383.00;;;;8370828;28;20194;-73
2022/12/11 07:33:47;;;;;;;24.23;11.67;;;;;-1.50;95377.00;;;;8365756;28;20669;-74
2022/12/11 07:37:50;;;;;;;28.90;12.73;;;;;-1.50;95383.00;;;;8368990;28;20197;-74
2022/12/11 07:41:54;;;;;;;32.93;14.03;;;;;-1.50;95377.00;;;;8377588;28;20203;-74
2022/12/11 07:46:01;;;;;;;27.50;12.27;;;;;-1.50;95371.00;;;;8379487;28;20207;-73
2022/12/11 07:50:05;;;;;;;26.50;11.50;;;;;-1.50;95363.00;;;;8371426;28;20760;-74
2022/12/11 07:54:15;;;;;;;31.37;12.87;;;;;-1.40;95368.00;;;;8377077;28;20220;-74
2022/12/11 07:58:19;;;;;;;32.23;13.73;;;;;-1.40;95378.00;;;;8349066;28;20951;-74
2022/12/11 08:02:23;;;;;;;33.87;14.87;;;;;-1.40;95387.00;;;;8345651;28;20253;-73
2022/12/11 08:06:28;;;;;;;33.97;14.70;;;;;-1.40;95390.00;;;;8358767;28;20202;-73
2022/12/11 08:10:31;;;;;;;33.33;14.40;;;;;-1.30;95387.00;;;;8368960;28;20255;-74
2022/12/11 08:14:36;;;;;;;35.00;15.00;;;;;-1.20;95396.00;;;;8371172;28;20283;-72
2022/12/11 08:18:39;;;;;;;28.70;13.43;;;;;-1.10;95405.00;;;;8370532;28;21705;-74
2022/12/11 08:22:42;;;;;;;27.43;13.13;;;;;-1.00;95409.00;;;;8388395;28;20228;-73
2022/12/11 08:26:45;;;;;;;29.57;13.40;;;;;-0.90;95405.00;;;;8373122;28;20203;-74
2022/12/11 08:30:50;;;;;;;29.17;12.90;;;;;-0.80;95401.00;;;;8356254;28;20196;-74
2022/12/11 08:34:53;;;;;;;28.53;12.77;;;;;-0.80;95404.00;;;;8376254;28;20231;-74
2022/12/11 08:38:56;;;;;;;30.30;13.73;;;;;-0.70;95405.00;;;;8379624;28;20211;-74
2022/12/11 08:42:59;;;;;;;30.67;13.87;;;;;-0.60;95412.00;;;;8374201;28;20226;-73
2022/12/11 08:47:04;;;;;;;32.40;13.90;;;;;-0.40;95406.00;;;;8364756;28;20778;-74
2022/12/11 08:51:11;;;;;;;30.83;13.33;;;;;-0.40;95405.00;;;;8359363;28;20204;-74
2022/12/11 08:55:14;;;;;;;32.63;13.87;;;;;-0.30;95412.00;;;;8359901;28;20233;-75
2022/12/11 08:59:18;;;;;;;35.10;13.80;;;;;-0.20;95401.00;;;;8346902;28;20682;-75
2022/12/11 09:03:23;;;;;;;29.20;13.33;;;;;-0.10;95409.00;;;;8354663;28;20267;-74
2022/12/11 09:07:26;;;;;;;29.03;12.20;;;;;0.00;95407.00;;;;8348324;28;20202;-75
2022/12/11 09:11:31;;;;;;;30.13;12.00;;;;;0.20;95414.00;;;;8352630;28;20194;-75
2022/12/11 09:15:35;;;;;;;31.80;13.63;;;;;0.60;95416.00;;;;8348873;28;20304;-75
2022/12/11 09:19:39;;;;;;;23.37;11.07;;;;;0.80;95420.00;;;;8350787;28;20261;-75
2022/12/11 09:23:43;;;;;;;26.70;12.63;;;;;0.70;95413.00;;;;8348780;28;20203;-74
2022/12/11 09:27:46;;;;;;;26.50;11.63;;;;;0.50;95423.00;;;;8358115;28;20193;-75
2022/12/11 09:31:49;;;;;;;24.27;11.00;;;;;0.50;95419.00;;;;8354263;28;20257;-75
2022/12/11 09:35:58;;;;;;;28.57;12.53;;;;;0.60;95424.00;;;;8352526;28;20234;-75
2022/12/11 09:40:01;;;;;;;25.50;11.37;;;;;0.70;95425.00;;;;8365835;28;20205;-75
2022/12/11 09:44:19;;;;;;;22.50;10.97;;;;;1.00;95420.00;;;;8347221;28;20199;-74
2022/12/11 09:48:26;;;;;;;25.07;11.33;;;;;1.10;95410.00;;;;8356366;28;20284;-74
2022/12/11 09:52:34;;;;;;;29.63;11.93;;;;;1.20;95411.00;;;;8372223;28;20254;-73
2022/12/11 09:56:42;;;;;;;24.70;11.43;;;;;1.20;95400.00;;;;8361295;28;20343;-74
2022/12/11 10:00:48;;;;;;;24.47;10.77;;;;;1.10;95397.00;;;;8360742;28;20191;-74
2022/12/11 10:05:02;;;;;;;22.07;10.63;;;;;0.90;95396.00;;;;8355727;28;20238;-74
2022/12/11 10:09:17;;;;;;;18.00;8.77;;;;;0.80;95391.00;;;;8352329;28;20202;-74
2022/12/11 10:13:31;;;;;;;18.37;10.20;;;;;0.70;95394.00;;;;8372844;28;20200;-74
2022/12/11 10:17:38;;;;;;;18.80;9.40;;;;;0.80;95386.00;;;;8366039;28;20207;-73
2022/12/11 10:21:42;;;;;;;21.00;9.60;;;;;0.80;95380.00;;;;8379780;28;20197;-74
2022/12/11 10:25:52;;;;;;;20.17;10.47;;;;;0.80;95384.00;;;;8350485;28;20204;-75
2022/12/11 10:30:02;;;;;;;16.50;8.20;;;;;0.80;95385.00;;;;8358160;28;20228;-75
2022/12/11 10:34:12;;;;;;;12.07;6.80;;;;;0.90;95382.00;;;;8358022;28;20201;-75
2022/12/11 10:38:20;;;;;;;11.27;6.27;;;;;1.00;95377.00;;;;8357854;28;20581;-74
2022/12/11 10:42:24;;;;;;;11.13;5.83;;;;;1.10;95368.00;;;;8355552;28;20751;-75
2022/12/11 10:46:31;;;;;;;15.03;6.97;;;;;1.20;95362.00;;;;8363082;28;20617;-74
2022/12/11 10:50:35;;;;;;;11.83;5.93;;;;;1.20;95361.00;;;;8350876;28;20302;-75
2022/12/11 10:54:40;;;;;;;10.70;5.40;;;;;1.20;95361.00;;;;8357021;28;20820;-75
2022/12/11 10:58:49;;;;;;;15.03;7.83;;;;;1.10;95355.00;;;;8371797;28;20201;-75
2022/12/11 11:02:52;;;;;;;15.90;7.50;;;;;1.10;95354.00;;;;8357251;28;20588;-77
2022/12/11 11:07:02;;;;;;;15.00;8.10;;;;;1.20;95349.00;;;;8348047;28;20207;-77
2022/12/11 11:11:20;;;;;;;11.30;6.30;;;;;1.20;95345.00;;;;8367684;28;20197;-75
2022/12/11 11:15:27;;;;;;;9.13;5.80;;;;;1.10;95340.00;;;;8370936;28;20229;-78
2022/12/11 11:19:33;;;;;;;10.00;5.80;;;;;1.20;95345.00;;;;8371135;28;20193;-77
2022/12/11 11:23:36;;;;;;;7.37;4.60;;;;;1.20;95343.00;;;;8372250;28;20283;-77
2022/12/11 11:27:51;;;;;;;7.60;4.43;;;;;1.20;95334.00;;;;8360348;28;20194;-77
2022/12/11 11:31:56;;;;;;;8.37;4.07;;;;;1.10;95321.00;;;;8356244;28;20199;-77
2022/12/11 11:36:01;;;;;;;5.17;3.73;;;;;1.10;95311.00;;;;8349987;28;20217;-76
2022/12/11 11:40:13;;;;;;;6.40;4.23;;;;;1.10;95300.00;;;;8350935;28;20196;-77
2022/12/11 11:44:24;;;;;;;7.30;4.47;;;;;1.10;95289.00;;;;8349173;28;20192;-78
2022/12/11 11:48:35;;;;;;;6.10;3.83;;;;;1.10;95287.00;;;;8355509;28;20234;-77
2022/12/11 11:52:44;;;;;;;5.07;3.27;;;;;1.20;95301.00;;;;8348652;28;20679;-78
2022/12/11 11:56:51;;;;;;;5.40;3.37;;;;;1.10;95291.00;;;;8350435;28;20234;-78
2022/12/11 12:00:54;;;;;;;6.30;4.17;;;;;1.00;95293.00;;;;8345666;28;20202;-78
2022/12/11 12:05:23;;;;;;;6.87;4.33;;;;;0.90;95288.00;;;;8410268;27;20589;-77
2022/12/11 12:09:38;;;;;;;16.30;8.53;;;;;1.00;95282.00;;;;8413338;28;20206;-78
2022/12/11 12:13:49;;;;;;;11.17;6.70;;;;;1.30;95292.00;;;;8408859;28;20559;-79
2022/12/11 12:17:55;;;;;;;8.57;5.57;;;;;1.70;95290.00;;;;8400544;28;20214;-76
2022/12/11 12:22:08;;;;;;;10.23;5.90;;;;;1.90;95270.00;;;;8411847;28;20221;-78
2022/12/11 12:26:17;;;;;;;11.63;5.77;;;;;1.90;95272.00;;;;8410220;28;20201;-77
2022/12/11 12:30:21;;;;;;;10.47;5.93;;;;;1.70;95268.00;;;;8411841;28;20217;-79
2022/12/11 12:34:38;;;;;;;9.90;6.07;;;;;1.60;95273.00;;;;8404784;28;20218;-78
2022/12/11 12:38:52;;;;;;;10.27;6.23;;;;;1.60;95280.00;;;;8406654;28;20538;-78
2022/12/11 12:43:05;;;;;;;9.13;6.03;;;;;1.70;95281.00;;;;8412267;28;20291;-80
2022/12/11 12:47:12;;;;;;;10.77;6.43;;;;;1.70;95272.00;;;;8413686;28;20553;-78
2022/12/11 12:51:17;;;;;;;8.67;5.57;;;;;1.60;95267.00;;;;8403681;28;20195;-78
2022/12/11 12:55:25;;;;;;;11.43;6.30;;;;;1.30;95273.00;;;;8409772;28;20627;-79
2022/12/11 12:59:28;;;;;;;77.33;23.90;;;;;1.20;95266.00;;;;8410945;28;20206;-79
2022/12/11 13:03:37;;;;;;;15.20;7.37;;;;;1.20;95263.00;;;;8389860;28;20228;-72
2022/12/11 13:07:49;;;;;;;37.67;20.50;;;;;1.20;95261.00;;;;8376005;28;20646;-76
2022/12/11 13:11:57;;;;;;;16.67;11.47;;;;;1.30;95250.00;;;;8378997;28;20233;-79
2022/12/11 13:16:23;;;;;;;11.90;6.70;;;;;1.40;95261.00;;;;8359150;28;20693;-78
2022/12/11 13:20:28;;;;;;;15.20;7.37;;;;;1.30;95264.00;;;;8353211;28;20235;-77
2022/12/11 13:24:33;;;;;;;15.10;7.73;;;;;1.30;95269.00;;;;8350692;28;20317;-79
2022/12/11 13:28:49;;;;;;;13.50;7.67;;;;;1.40;95260.00;;;;8354811;28;20282;-77
2022/12/11 13:33:03;;;;;;;15.80;8.37;;;;;1.30;95273.00;;;;8354326;28;20200;-80
2022/12/11 13:37:07;;;;;;;13.17;7.93;;;;;1.20;95274.00;;;;8355588;28;20247;-76
2022/12/11 13:41:12;;;;;;;13.97;7.83;;;;;1.10;95262.00;;;;8354918;28;20207;-78
2022/12/11 13:45:23;;;;;;;15.30;8.70;;;;;1.10;95270.00;;;;8355808;28;20231;-79
2022/12/11 13:49:30;;;;;;;12.30;7.13;;;;;0.90;95277.00;;;;8349497;28;20659;-78
2022/12/11 13:53:33;;;;;;;14.33;7.53;;;;;0.80;95284.00;;;;8352380;28;20207;-78
2022/12/11 13:57:45;;;;;;;14.67;7.57;;;;;0.70;95283.00;;;;8350601;28;20199;-78
2022/12/11 14:01:50;;;;;;;14.67;7.30;;;;;0.60;95292.00;;;;8353610;28;20234;-79
2022/12/11 14:05:54;;;;;;;16.10;8.50;;;;;0.50;95292.00;;;;8349879;28;20229;-75
2022/12/11 14:10:02;;;;;;;14.97;7.27;;;;;0.50;95293.00;;;;8346433;28;20203;-74
2022/12/11 14:14:17;;;;;;;15.93;7.60;;;;;0.50;95283.00;;;;8347779;28;20965;-80
2022/12/11 14:18:26;;;;;;;15.70;7.37;;;;;0.50;95290.00;;;;8352373;28;20194;-80
2022/12/11 14:22:30;;;;;;;17.13;8.57;;;;;0.50;95288.00;;;;8352620;28;20225;-82
2022/12/11 14:26:36;;;;;;;15.30;7.80;;;;;0.50;95291.00;;;;8342217;28;20209;-81
2022/12/11 14:30:47;;;;;;;15.10;8.17;;;;;0.40;95282.00;;;;8350631;28;20589;-78
2022/12/11 14:34:53;;;;;;;15.33;8.23;;;;;0.40;95282.00;;;;8348138;28;20198;-77
2022/12/11 14:39:01;;;;;;;18.63;9.10;;;;;0.30;95287.00;;;;8345735;28;20196;-81
2022/12/11 14:43:11;;;;;;;17.50;8.83;;;;;0.30;95291.00;;;;8349901;28;20226;-83
2022/12/11 14:47:19;;;;;;;15.83;8.30;;;;;0.30;95297.00;;;;8354038;28;20252;-76
2022/12/11 14:51:25;;;;;;;15.30;8.40;;;;;0.30;95294.00;;;;8344254;28;20681;-76
2022/12/11 14:55:30;;;;;;;15.17;8.00;;;;;0.20;95290.00;;;;8350519;28;20699;-79
2022/12/11 14:59:40;;;;;;;13.40;7.47;;;;;0.20;95278.00;;;;8349010;28;20252;-80
2022/12/11 15:03:43;;;;;;;19.33;9.80;;;;;0.20;95285.00;;;;8349165;28;20235;-81
2022/12/11 15:07:57;;;;;;;15.63;10.03;;;;;0.10;95285.00;;;;8333156;28;20209;-81
2022/12/11 15:12:11;;;;;;;15.97;8.27;;;;;0.10;95280.00;;;;8342689;28;20212;-79
2022/12/11 15:16:15;;;;;;;18.27;9.03;;;;;0.00;95281.00;;;;8349118;28;20925;-80
2022/12/11 15:20:25;;;;;;;15.73;8.30;;;;;-0.20;95275.00;;;;8348330;28;20193;-81
2022/12/11 15:24:37;;;;;;;15.33;8.27;;;;;-0.30;95273.00;;;;8345259;28;20225;-79
2022/12/11 15:28:40;;;;;;;19.17;9.40;;;;;-0.40;95276.00;;;;8344234;28;20209;-77
2022/12/11 15:32:46;;;;;;;16.37;7.47;;;;;-0.50;95285.00;;;;8346169;28;20227;-73
2022/12/11 15:36:49;;;;;;;17.17;9.00;;;;;-0.50;95274.00;;;;8347792;28;20194;-81
2022/12/11 15:40:54;;;;;;;15.07;8.00;;;;;-0.50;95280.00;;;;8334367;28;20197;-82
2022/12/11 15:44:59;;;;;;;11.93;6.07;;;;;-0.40;95283.00;;;;8333299;28;20682;-82
2022/12/11 15:49:02;;;;;;;13.53;6.90;;;;;-0.40;95285.00;;;;8345696;28;20202;-79
2022/12/11 15:53:05;;;;;;;13.13;7.07;;;;;-0.30;95288.00;;;;8342988;28;20932;-80
2022/12/11 15:57:17;;;;;;;15.70;7.87;;;;;-0.30;95293.00;;;;8347685;28;20255;-79
2022/12/11 16:01:20;;;;;;;14.80;8.47;;;;;-0.30;95292.00;;;;8338632;28;20244;-75
2022/12/11 16:05:23;;;;;;;14.07;8.10;;;;;-0.30;95291.00;;;;8344529;28;20315;-77
2022/12/11 16:09:26;;;;;;;16.23;7.97;;;;;-0.40;95293.00;;;;8345341;28;20622;-79
2022/12/11 16:13:31;;;;;;;18.00;8.47;;;;;-0.60;95293.00;;;;8348926;28;20201;-78
2022/12/11 16:17:34;;;;;;;13.57;7.27;;;;;-0.80;95296.00;;;;8339340;28;21789;-82
2022/12/11 16:21:37;;;;;;;17.20;8.30;;;;;-0.90;95306.00;;;;8347043;28;20205;-78
2022/12/11 16:25:41;;;;;;;15.60;8.53;;;;;-1.00;95304.00;;;;8344997;28;20236;-81
2022/12/11 16:29:46;;;;;;;16.53;8.30;;;;;-1.00;95309.00;;;;8345824;28;20230;-82
2022/12/11 16:33:50;;;;;;;17.30;8.60;;;;;-0.90;95310.00;;;;8348047;28;20205;-79
2022/12/11 16:37:53;;;;;;;16.50;7.77;;;;;-0.90;95313.00;;;;8347565;28;20810;-81
2022/12/11 16:41:56;;;;;;;14.00;7.77;;;;;-1.00;95309.00;;;;8347175;28;20204;-79
2022/12/11 16:46:01;;;;;;;18.47;8.60;;;;;-1.00;95317.00;;;;8339449;28;20605;-81
2022/12/11 16:50:05;;;;;;;14.47;7.70;;;;;-1.00;95312.00;;;;8348731;28;20662;-81
2022/12/11 16:54:09;;;;;;;17.07;7.47;;;;;-0.90;95317.00;;;;8347599;28;20254;-80
2022/12/11 16:58:15;;;;;;;15.13;7.83;;;;;-0.90;95312.00;;;;8354854;28;20604;-78
2022/12/11 17:02:20;;;;;;;17.10;7.77;;;;;-0.80;95314.00;;;;8347687;28;20248;-79
2022/12/11 17:06:24;;;;;;;14.73;7.37;;;;;-0.80;95320.00;;;;8342120;28;20225;-75
2022/12/11 17:10:27;;;;;;;20.03;9.57;;;;;-0.70;95322.00;;;;8348884;28;20267;-78
2022/12/11 17:14:30;;;;;;;27.97;13.17;;;;;-0.70;95323.00;;;;8348578;28;20258;-78
2022/12/11 17:18:35;;;;;;;14.97;7.37;;;;;-0.70;95315.00;;;;8346762;28;20205;-77
2022/12/11 17:22:39;;;;;;;17.87;7.50;;;;;-0.70;95319.00;;;;8350663;28;20197;-77
2022/12/11 17:26:42;;;;;;;15.97;8.97;;;;;-0.70;95317.00;;;;8344806;28;20274;-76
2022/12/11 17:30:47;;;;;;;14.17;7.80;;;;;-0.70;95321.00;;;;8355115;28;20295;-75
2022/12/11 17:34:52;;;;;;;16.10;7.97;;;;;-0.70;95324.00;;;;8350933;28;20201;-77
2022/12/11 17:38:55;;;;;;;15.97;7.97;;;;;-0.70;95321.00;;;;8352090;28;20222;-77
2022/12/11 17:42:58;;;;;;;18.97;7.60;;;;;-0.70;95324.00;;;;8346134;28;20375;-75
2022/12/11 17:47:01;;;;;;;15.07;8.13;;;;;-0.70;95327.00;;;;8352965;28;20220;-76
2022/12/11 17:51:19;;;;;;;14.63;7.53;;;;;-0.70;95325.00;;;;8348931;28;20197;-76
2022/12/11 17:55:23;;;;;;;17.73;8.50;;;;;-0.80;95326.00;;;;8339576;28;20240;-75
2022/12/11 17:59:26;;;;;;;14.07;6.33;;;;;-0.90;95334.00;;;;8346023;28;20839;-75
2022/12/11 18:03:29;;;;;;;15.63;7.30;;;;;-0.90;95338.00;;;;8342679;28;20278;-75
2022/12/11 18:07:36;;;;;;;15.77;7.17;;;;;-0.90;95339.00;;;;8344499;28;20202;-75
2022/12/11 18:11:39;;;;;;;13.27;6.13;;;;;-0.90;95335.00;;;;8349061;28;20207;-75
2022/12/11 18:15:42;;;;;;;15.17;6.93;;;;;-1.00;95342.00;;;;8354314;28;20189;-75
2022/12/11 18:19:46;;;;;;;25.60;8.73;;;;;-1.00;95348.00;;;;8348693;28;20201;-75
2022/12/11 18:23:50;;;;;;;50.20;27.37;;;;;-1.00;95346.00;;;;8350876;28;20224;-75
2022/12/11 18:27:54;;;;;;;14.53;6.83;;;;;-1.00;95344.00;;;;8353688;28;20231;-75
2022/12/11 18:31:57;;;;;;;15.67;7.70;;;;;-0.90;95338.00;;;;8352230;28;20204;-74
2022/12/11 18:36:01;;;;;;;17.03;8.83;;;;;-1.00;95341.00;;;;8356163;28;20228;-74
2022/12/11 18:40:07;;;;;;;16.20;7.67;;;;;-1.10;95341.00;;;;8346349;28;20569;-75
2022/12/11 18:44:10;;;;;;;13.93;7.10;;;;;-1.10;95338.00;;;;8347599;28;20229;-75
2022/12/11 18:48:14;;;;;;;17.87;7.87;;;;;-1.20;95337.00;;;;8347642;28;20205;-72
2022/12/11 18:52:17;;;;;;;18.20;8.07;;;;;-1.20;95351.00;;;;8344590;28;21163;-74
2022/12/11 18:56:23;;;;;;;18.10;8.57;;;;;-1.20;95354.00;;;;8343581;28;20258;-75
2022/12/11 19:00:26;;;;;;;21.10;10.13;;;;;-1.20;95347.00;;;;8341546;28;20198;-74
2022/12/11 19:04:29;;;;;;;14.70;7.60;;;;;-1.20;95355.00;;;;8347400;28;20220;-75
2022/12/11 19:08:32;;;;;;;15.90;8.17;;;;;-1.20;95355.00;;;;8345681;28;20197;-75
2022/12/11 19:12:37;;;;;;;16.93;8.43;;;;;-1.20;95352.00;;;;8348975;28;20197;-74
2022/12/11 19:16:44;;;;;;;22.30;10.13;;;;;-1.20;95355.00;;;;8349284;28;20205;-75
2022/12/11 19:20:47;;;;;;;21.47;9.10;;;;;-1.20;95352.00;;;;8344111;28;20211;-76
2022/12/11 19:24:57;;;;;;;19.23;9.27;;;;;-1.20;95350.00;;;;8339947;28;20266;-76
2022/12/11 19:29:02;;;;;;;19.73;8.93;;;;;-1.30;95351.00;;;;8346367;28;20196;-76
2022/12/11 19:33:05;;;;;;;21.20;9.20;;;;;-1.40;95350.00;;;;8342670;28;20826;-75
2022/12/11 19:37:08;;;;;;;15.83;8.30;;;;;-1.40;95346.00;;;;8341788;28;20201;-75
2022/12/11 19:41:15;;;;;;;19.27;7.83;;;;;-1.50;95350.00;;;;8344129;28;20703;-75
2022/12/11 19:45:20;;;;;;;17.10;7.13;;;;;-1.50;95353.00;;;;8346544;28;20236;-76
2022/12/11 19:49:23;;;;;;;12.93;6.93;;;;;-1.50;95359.00;;;;8343259;28;20201;-76
2022/12/11 19:53:26;;;;;;;17.67;8.03;;;;;-1.60;95358.00;;;;8348667;28;20205;-76
2022/12/11 19:57:32;;;;;;;21.73;8.70;;;;;-1.60;95357.00;;;;8345615;28;20658;-74
2022/12/11 20:01:38;;;;;;;20.70;9.23;;;;;-1.70;95354.00;;;;8341668;28;20225;-76
2022/12/11 20:05:41;;;;;;;22.47;9.03;;;;;-1.70;95360.00;;;;8343286;28;20542;-74
2022/12/11 20:09:44;;;;;;;22.73;9.80;;;;;-1.80;95372.00;;;;8337138;28;20202;-75
2022/12/11 20:13:48;;;;;;;18.93;9.43;;;;;-1.80;95374.00;;;;8345542;28;20224;-75
2022/12/11 20:17:54;;;;;;;23.17;8.40;;;;;-1.70;95363.00;;;;8342233;28;20204;-74
2022/12/11 20:21:58;;;;;;;19.97;9.30;;;;;-1.70;95363.00;;;;8348976;28;20205;-75
2022/12/11 20:26:06;;;;;;;23.33;9.80;;;;;-1.60;95364.00;;;;8355046;28;20225;-74